sensor_id;sensor_type;location;lat;lon;timestamp;pressure;altitude;pressure_sealevel;temperature;humidity
77235;BME280;66253;50.526;14.974;2024-01-11T00:00:57;100491.61;;;-7.66;75.08
77235;BME280;66253;50.526;14.974;2024-01-11T00:03:26;100496.38;;;-7.66;75.54
77235;BME280;66253;50.526;14.974;2024-01-11T00:05:54;100496.13;;;-7.69;75.02
77235;BME280;66253;50.526;14.974;2024-01-11T00:08:22;100495.10;;;-7.69;76.14
77235;BME280;66253;50.526;14.974;2024-01-11T00:10:50;100491.11;;;-7.70;75.69
77235;BME280;66253;50.526;14.974;2024-01-11T00:13:18;100489.46;;;-7.69;75.93
77235;BME280;66253;50.526;14.974;2024-01-11T00:15:47;100490.47;;;-7.73;74.84
77235;BME280;66253;50.526;14.974;2024-01-11T00:18:15;100486.53;;;-7.77;75.21
77235;BME280;66253;50.526;14.974;2024-01-11T00:20:43;100482.11;;;-7.80;75.02
77235;BME280;66253;50.526;14.974;2024-01-11T00:23:11;100478.02;;;-7.83;75.34
77235;BME280;66253;50.526;14.974;2024-01-11T00:25:39;100476.50;;;-7.84;74.90
77235;BME280;66253;50.526;14.974;2024-01-11T00:28:08;100471.45;;;-7.86;75.02
77235;BME280;66253;50.526;14.974;2024-01-11T00:30:36;100469.19;;;-7.88;74.93
77235;BME280;66253;50.526;14.974;2024-01-11T00:33:04;100471.78;;;-7.90;74.93
77235;BME280;66253;50.526;14.974;2024-01-11T00:35:33;100474.27;;;-7.90;75.31
77235;BME280;66253;50.526;14.974;2024-01-11T00:38:01;100474.61;;;-7.89;75.28
77235;BME280;66253;50.526;14.974;2024-01-11T00:40:29;100474.14;;;-7.89;75.33
77235;BME280;66253;50.526;14.974;2024-01-11T00:42:57;100471.61;;;-7.90;75.37
77235;BME280;66253;50.526;14.974;2024-01-11T00:45:26;100471.90;;;-7.91;75.27
77235;BME280;66253;50.526;14.974;2024-01-11T00:47:54;100467.11;;;-7.90;75.32
77235;BME280;66253;50.526;14.974;2024-01-11T00:50:22;100466.80;;;-7.90;75.28
77235;BME280;66253;50.526;14.974;2024-01-11T00:52:50;100465.56;;;-7.92;75.26
77235;BME280;66253;50.526;14.974;2024-01-11T00:55:19;100466.33;;;-7.94;75.27
77235;BME280;66253;50.526;14.974;2024-01-11T00:57:47;100465.42;;;-7.95;75.39
77235;BME280;66253;50.526;14.974;2024-01-11T01:00:16;100464.02;;;-7.97;75.43
77235;BME280;66253;50.526;14.974;2024-01-11T01:02:44;100465.80;;;-7.98;74.91
77235;BME280;66253;50.526;14.974;2024-01-11T01:05:13;100463.42;;;-8.00;75.17
77235;BME280;66253;50.526;14.974;2024-01-11T01:07:41;100459.59;;;-8.01;75.00
77235;BME280;66253;50.526;14.974;2024-01-11T01:10:12;100454.91;;;-8.02;75.21
77235;BME280;66253;50.526;14.974;2024-01-11T01:12:41;100454.04;;;-8.02;75.18
77235;BME280;66253;50.526;14.974;2024-01-11T01:15:09;100449.24;;;-8.02;75.31
77235;BME280;66253;50.526;14.974;2024-01-11T01:17:38;100443.07;;;-8.03;75.14
77235;BME280;66253;50.526;14.974;2024-01-11T01:20:08;100445.64;;;-8.06;74.91
77235;BME280;66253;50.526;14.974;2024-01-11T01:22:36;100446.09;;;-8.07;75.02
77235;BME280;66253;50.526;14.974;2024-01-11T01:25:06;100445.27;;;-8.07;75.63
77235;BME280;66253;50.526;14.974;2024-01-11T01:27:36;100444.67;;;-8.09;75.11
77235;BME280;66253;50.526;14.974;2024-01-11T01:30:06;100444.44;;;-8.11;74.72
77235;BME280;66253;50.526;14.974;2024-01-11T01:32:35;100443.89;;;-8.12;75.07
77235;BME280;66253;50.526;14.974;2024-01-11T01:35:03;100439.50;;;-8.14;74.65
77235;BME280;66253;50.526;14.974;2024-01-11T01:37:32;100433.77;;;-8.17;75.11
77235;BME280;66253;50.526;14.974;2024-01-11T01:40:00;100430.43;;;-8.21;74.70
77235;BME280;66253;50.526;14.974;2024-01-11T01:42:29;100427.27;;;-8.27;75.23
77235;BME280;66253;50.526;14.974;2024-01-11T01:44:57;100421.69;;;-8.29;75.22
77235;BME280;66253;50.526;14.974;2024-01-11T01:47:26;100416.98;;;-8.31;75.11
77235;BME280;66253;50.526;14.974;2024-01-11T01:49:54;100419.39;;;-8.33;74.83
77235;BME280;66253;50.526;14.974;2024-01-11T01:52:23;100422.09;;;-8.36;74.86
77235;BME280;66253;50.526;14.974;2024-01-11T01:54:52;100418.05;;;-8.38;74.93
77235;BME280;66253;50.526;14.974;2024-01-11T01:57:21;100417.80;;;-8.41;74.75
77235;BME280;66253;50.526;14.974;2024-01-11T01:59:51;100420.12;;;-8.41;74.92
77235;BME280;66253;50.526;14.974;2024-01-11T02:02:20;100423.04;;;-8.42;74.95
77235;BME280;66253;50.526;14.974;2024-01-11T02:04:49;100424.98;;;-8.43;75.19
77235;BME280;66253;50.526;14.974;2024-01-11T02:07:18;100428.36;;;-8.45;75.19
77235;BME280;66253;50.526;14.974;2024-01-11T02:09:47;100423.48;;;-8.47;74.69
77235;BME280;66253;50.526;14.974;2024-01-11T02:12:16;100427.10;;;-8.52;74.58
77235;BME280;66253;50.526;14.974;2024-01-11T02:14:45;100436.35;;;-8.61;74.95
77235;BME280;66253;50.526;14.974;2024-01-11T02:17:14;100445.66;;;-8.64;75.38
77235;BME280;66253;50.526;14.974;2024-01-11T02:19:42;100453.48;;;-8.67;75.49
77235;BME280;66253;50.526;14.974;2024-01-11T02:22:15;100447.37;;;-8.71;75.77
77235;BME280;66253;50.526;14.974;2024-01-11T02:24:46;100440.89;;;-8.71;75.29
77235;BME280;66253;50.526;14.974;2024-01-11T02:27:14;100427.50;;;-8.71;76.00
77235;BME280;66253;50.526;14.974;2024-01-11T02:29:43;100430.05;;;-8.69;75.95
77235;BME280;66253;50.526;14.974;2024-01-11T02:32:11;100428.66;;;-8.67;75.70
77235;BME280;66253;50.526;14.974;2024-01-11T02:34:40;100429.06;;;-8.65;76.23
77235;BME280;66253;50.526;14.974;2024-01-11T02:37:08;100432.07;;;-8.64;76.38
77235;BME280;66253;50.526;14.974;2024-01-11T02:39:36;100431.61;;;-8.63;76.03
77235;BME280;66253;50.526;14.974;2024-01-11T02:42:05;100428.83;;;-8.63;75.74
77235;BME280;66253;50.526;14.974;2024-01-11T02:44:33;100428.70;;;-8.62;76.05
77235;BME280;66253;50.526;14.974;2024-01-11T02:47:02;100424.02;;;-8.63;75.69
77235;BME280;66253;50.526;14.974;2024-01-11T02:49:30;100420.41;;;-8.62;76.05
77235;BME280;66253;50.526;14.974;2024-01-11T02:51:58;100418.95;;;-8.61;75.13
77235;BME280;66253;50.526;14.974;2024-01-11T02:54:27;100417.73;;;-8.59;76.17
77235;BME280;66253;50.526;14.974;2024-01-11T02:56:55;100417.56;;;-8.59;75.75
77235;BME280;66253;50.526;14.974;2024-01-11T02:59:23;100416.93;;;-8.58;75.89
77235;BME280;66253;50.526;14.974;2024-01-11T03:01:51;100420.44;;;-8.57;75.55
77235;BME280;66253;50.526;14.974;2024-01-11T03:04:20;100412.80;;;-8.58;76.23
77235;BME280;66253;50.526;14.974;2024-01-11T03:06:48;100406.83;;;-8.58;75.85
77235;BME280;66253;50.526;14.974;2024-01-11T03:09:16;100404.88;;;-8.57;76.16
77235;BME280;66253;50.526;14.974;2024-01-11T03:11:44;100404.41;;;-8.56;76.00
77235;BME280;66253;50.526;14.974;2024-01-11T03:14:13;100412.05;;;-8.56;76.18
77235;BME280;66253;50.526;14.974;2024-01-11T03:16:41;100412.14;;;-8.54;76.24
77235;BME280;66253;50.526;14.974;2024-01-11T03:19:09;100409.75;;;-8.51;76.06
77235;BME280;66253;50.526;14.974;2024-01-11T03:21:42;100405.02;;;-8.49;75.83
77235;BME280;66253;50.526;14.974;2024-01-11T03:24:10;100412.64;;;-8.49;75.83
77235;BME280;66253;50.526;14.974;2024-01-11T03:26:38;100424.20;;;-8.50;75.88
77235;BME280;66253;50.526;14.974;2024-01-11T03:29:07;100440.16;;;-8.53;75.63
77235;BME280;66253;50.526;14.974;2024-01-11T03:31:35;100447.77;;;-8.57;75.90
77235;BME280;66253;50.526;14.974;2024-01-11T03:34:04;100442.30;;;-8.61;75.11
77235;BME280;66253;50.526;14.974;2024-01-11T03:36:32;100429.14;;;-8.63;74.95
77235;BME280;66253;50.526;14.974;2024-01-11T03:39:01;100427.06;;;-8.65;75.80
77235;BME280;66253;50.526;14.974;2024-01-11T03:41:30;100424.37;;;-8.66;75.33
77235;BME280;66253;50.526;14.974;2024-01-11T03:43:58;100407.92;;;-8.68;75.52
77235;BME280;66253;50.526;14.974;2024-01-11T03:46:26;100400.97;;;-8.68;75.92
77235;BME280;66253;50.526;14.974;2024-01-11T03:48:54;100408.27;;;-8.67;76.28
77235;BME280;66253;50.526;14.974;2024-01-11T03:51:23;100406.65;;;-8.66;75.52
77235;BME280;66253;50.526;14.974;2024-01-11T03:53:51;100397.76;;;-8.65;76.16
77235;BME280;66253;50.526;14.974;2024-01-11T03:56:19;100402.70;;;-8.66;75.86
77235;BME280;66253;50.526;14.974;2024-01-11T03:58:47;100413.05;;;-8.68;75.79
77235;BME280;66253;50.526;14.974;2024-01-11T04:01:15;100412.55;;;-8.68;75.55
77235;BME280;66253;50.526;14.974;2024-01-11T04:03:44;100408.91;;;-8.68;76.28
77235;BME280;66253;50.526;14.974;2024-01-11T04:06:21;100397.40;;;-8.66;76.07
77235;BME280;66253;50.526;14.974;2024-01-11T04:08:48;100387.96;;;-8.66;76.35
77235;BME280;66253;50.526;14.974;2024-01-11T04:11:16;100390.05;;;-8.67;75.97
77235;BME280;66253;50.526;14.974;2024-01-11T04:13:44;100386.23;;;-8.68;76.05
77235;BME280;66253;50.526;14.974;2024-01-11T04:16:12;100392.84;;;-8.68;76.10
77235;BME280;66253;50.526;14.974;2024-01-11T04:18:41;100391.30;;;-8.69;76.39
77235;BME280;66253;50.526;14.974;2024-01-11T04:21:19;100387.39;;;-8.72;76.22
77235;BME280;66253;50.526;14.974;2024-01-11T04:23:47;100387.91;;;-8.76;75.57
77235;BME280;66253;50.526;14.974;2024-01-11T04:26:15;100387.68;;;-8.77;76.44
77235;BME280;66253;50.526;14.974;2024-01-11T04:28:44;100382.81;;;-8.79;75.67
77235;BME280;66253;50.526;14.974;2024-01-11T04:31:13;100375.48;;;-8.80;76.13
77235;BME280;66253;50.526;14.974;2024-01-11T04:33:42;100365.89;;;-8.80;76.08
77235;BME280;66253;50.526;14.974;2024-01-11T04:36:11;100358.95;;;-8.79;75.88
77235;BME280;66253;50.526;14.974;2024-01-11T04:38:40;100366.55;;;-8.80;76.18
77235;BME280;66253;50.526;14.974;2024-01-11T04:41:13;100368.14;;;-8.81;75.73
77235;BME280;66253;50.526;14.974;2024-01-11T04:43:42;100365.76;;;-8.83;76.01
77235;BME280;66253;50.526;14.974;2024-01-11T04:46:17;100373.69;;;-8.84;75.80
77235;BME280;66253;50.526;14.974;2024-01-11T04:48:46;100367.15;;;-8.85;75.88
77235;BME280;66253;50.526;14.974;2024-01-11T04:51:16;100363.54;;;-8.85;76.16
77235;BME280;66253;50.526;14.974;2024-01-11T04:53:45;100363.77;;;-8.83;76.46
77235;BME280;66253;50.526;14.974;2024-01-11T04:56:15;100373.05;;;-8.83;76.04
77235;BME280;66253;50.526;14.974;2024-01-11T04:58:45;100372.73;;;-8.86;75.95
77235;BME280;66253;50.526;14.974;2024-01-11T05:01:14;100367.86;;;-8.88;76.74
77235;BME280;66253;50.526;14.974;2024-01-11T05:03:43;100366.34;;;-8.89;76.28
77235;BME280;66253;50.526;14.974;2024-01-11T05:06:17;100364.31;;;-8.90;76.14
77235;BME280;66253;50.526;14.974;2024-01-11T05:08:47;100378.36;;;-8.91;76.30
77235;BME280;66253;50.526;14.974;2024-01-11T05:11:19;100385.50;;;-8.94;76.14
77235;BME280;66253;50.526;14.974;2024-01-11T05:13:48;100392.14;;;-8.97;76.15
77235;BME280;66253;50.526;14.974;2024-01-11T05:16:21;100400.77;;;-9.05;76.17
77235;BME280;66253;50.526;14.974;2024-01-11T05:18:50;100407.69;;;-9.10;75.86
77235;BME280;66253;50.526;14.974;2024-01-11T05:21:18;100405.23;;;-9.13;77.08
77235;BME280;66253;50.526;14.974;2024-01-11T05:23:47;100403.27;;;-9.13;77.19
77235;BME280;66253;50.526;14.974;2024-01-11T05:26:16;100404.30;;;-9.11;77.03
77235;BME280;66253;50.526;14.974;2024-01-11T05:28:45;100404.90;;;-9.09;76.73
77235;BME280;66253;50.526;14.974;2024-01-11T05:31:14;100405.70;;;-9.06;76.74
77235;BME280;66253;50.526;14.974;2024-01-11T05:33:43;100403.52;;;-9.03;77.30
77235;BME280;66253;50.526;14.974;2024-01-11T05:36:11;100401.35;;;-8.99;77.03
77235;BME280;66253;50.526;14.974;2024-01-11T05:38:40;100411.36;;;-8.97;76.76
77235;BME280;66253;50.526;14.974;2024-01-11T05:41:09;100405.81;;;-8.95;76.97
77235;BME280;66253;50.526;14.974;2024-01-11T05:43:39;100396.30;;;-8.93;77.18
77235;BME280;66253;50.526;14.974;2024-01-11T05:46:08;100388.17;;;-8.89;77.06
77235;BME280;66253;50.526;14.974;2024-01-11T05:48:37;100386.30;;;-8.86;77.35
77235;BME280;66253;50.526;14.974;2024-01-11T05:51:05;100381.07;;;-8.85;77.67
77235;BME280;66253;50.526;14.974;2024-01-11T05:53:33;100377.90;;;-8.82;77.21
77235;BME280;66253;50.526;14.974;2024-01-11T05:56:02;100371.73;;;-8.79;77.62
77235;BME280;66253;50.526;14.974;2024-01-11T05:58:34;100372.64;;;-8.77;77.69
77235;BME280;66253;50.526;14.974;2024-01-11T06:01:03;100375.72;;;-8.74;77.86
77235;BME280;66253;50.526;14.974;2024-01-11T06:03:31;100382.42;;;-8.72;77.69
77235;BME280;66253;50.526;14.974;2024-01-11T06:06:00;100384.00;;;-8.70;78.14
77235;BME280;66253;50.526;14.974;2024-01-11T06:08:30;100390.57;;;-8.67;78.11
77235;BME280;66253;50.526;14.974;2024-01-11T06:10:58;100401.70;;;-8.66;78.06
77235;BME280;66253;50.526;14.974;2024-01-11T06:13:26;100404.02;;;-8.66;78.00
77235;BME280;66253;50.526;14.974;2024-01-11T06:15:54;100397.65;;;-8.68;77.54
77235;BME280;66253;50.526;14.974;2024-01-11T06:18:23;100393.77;;;-8.70;76.99
77235;BME280;66253;50.526;14.974;2024-01-11T06:20:51;100400.66;;;-8.71;77.00
77235;BME280;66253;50.526;14.974;2024-01-11T06:23:19;100399.44;;;-8.73;77.81
77235;BME280;66253;50.526;14.974;2024-01-11T06:25:48;100398.11;;;-8.73;76.84
77235;BME280;66253;50.526;14.974;2024-01-11T06:28:18;100390.95;;;-8.74;77.29
77235;BME280;66253;50.526;14.974;2024-01-11T06:30:46;100391.87;;;-8.71;77.69
77235;BME280;66253;50.526;14.974;2024-01-11T06:33:15;100386.24;;;-8.71;77.86
77235;BME280;66253;50.526;14.974;2024-01-11T06:35:43;100378.48;;;-8.71;77.51
77235;BME280;66253;50.526;14.974;2024-01-11T06:38:11;100373.75;;;-8.70;77.56
77235;BME280;66253;50.526;14.974;2024-01-11T06:40:40;100380.39;;;-8.69;76.89
77235;BME280;66253;50.526;14.974;2024-01-11T06:43:08;100392.57;;;-8.71;77.19
77235;BME280;66253;50.526;14.974;2024-01-11T06:45:36;100397.71;;;-8.75;77.02
77235;BME280;66253;50.526;14.974;2024-01-11T06:48:06;100400.08;;;-8.78;77.05
77235;BME280;66253;50.526;14.974;2024-01-11T06:50:34;100392.45;;;-8.78;76.98
77235;BME280;66253;50.526;14.974;2024-01-11T06:53:03;100388.15;;;-8.78;77.20
77235;BME280;66253;50.526;14.974;2024-01-11T06:55:31;100383.98;;;-8.79;77.09
77235;BME280;66253;50.526;14.974;2024-01-11T06:57:59;100379.09;;;-8.77;77.32
77235;BME280;66253;50.526;14.974;2024-01-11T07:00:27;100375.77;;;-8.77;77.01
77235;BME280;66253;50.526;14.974;2024-01-11T07:02:56;100374.92;;;-8.78;77.07
77235;BME280;66253;50.526;14.974;2024-01-11T07:05:24;100382.59;;;-8.80;77.38
77235;BME280;66253;50.526;14.974;2024-01-11T07:07:52;100383.33;;;-8.83;76.99
77235;BME280;66253;50.526;14.974;2024-01-11T07:10:21;100381.81;;;-8.83;77.32
77235;BME280;66253;50.526;14.974;2024-01-11T07:12:49;100386.21;;;-8.85;76.66
77235;BME280;66253;50.526;14.974;2024-01-11T07:15:17;100382.07;;;-8.93;77.03
77235;BME280;66253;50.526;14.974;2024-01-11T07:17:45;100374.31;;;-8.92;77.36
77235;BME280;66253;50.526;14.974;2024-01-11T07:20:14;100359.16;;;-8.90;77.33
77235;BME280;66253;50.526;14.974;2024-01-11T07:22:42;100348.02;;;-8.88;78.06
77235;BME280;66253;50.526;14.974;2024-01-11T07:25:11;100338.91;;;-8.84;77.60
77235;BME280;66253;50.526;14.974;2024-01-11T07:27:39;100336.50;;;-8.78;77.86
77235;BME280;66253;50.526;14.974;2024-01-11T07:30:10;100339.41;;;-8.71;78.69
77235;BME280;66253;50.526;14.974;2024-01-11T07:32:40;100338.52;;;-8.64;78.02
77235;BME280;66253;50.526;14.974;2024-01-11T07:35:09;100333.33;;;-8.57;78.56
77235;BME280;66253;50.526;14.974;2024-01-11T07:37:38;100325.38;;;-8.53;78.24
77235;BME280;66253;50.526;14.974;2024-01-11T07:40:08;100319.39;;;-8.44;78.67
77235;BME280;66253;50.526;14.974;2024-01-11T07:42:36;100329.41;;;-8.38;78.33
77235;BME280;66253;50.526;14.974;2024-01-11T07:45:07;100352.15;;;-8.32;78.81
77235;BME280;66253;50.526;14.974;2024-01-11T07:47:35;100359.02;;;-8.26;79.02
77235;BME280;66253;50.526;14.974;2024-01-11T07:50:06;100358.71;;;-8.20;78.62
77235;BME280;66253;50.526;14.974;2024-01-11T07:52:35;100338.22;;;-8.14;78.65
77235;BME280;66253;50.526;14.974;2024-01-11T07:55:03;100328.73;;;-8.07;78.15
77235;BME280;66253;50.526;14.974;2024-01-11T07:57:32;100342.56;;;-8.00;78.11
77235;BME280;66253;50.526;14.974;2024-01-11T08:00:00;100333.36;;;-7.93;79.02
77235;BME280;66253;50.526;14.974;2024-01-11T08:02:29;100323.05;;;-7.85;78.65
77235;BME280;66253;50.526;14.974;2024-01-11T08:04:57;100328.95;;;-7.77;78.34
77235;BME280;66253;50.526;14.974;2024-01-11T08:07:26;100331.54;;;-7.70;78.73
77235;BME280;66253;50.526;14.974;2024-01-11T08:09:54;100347.59;;;-7.62;78.18
77235;BME280;66253;50.526;14.974;2024-01-11T08:12:23;100358.73;;;-7.56;78.14
77235;BME280;66253;50.526;14.974;2024-01-11T08:14:51;100344.33;;;-7.51;77.71
77235;BME280;66253;50.526;14.974;2024-01-11T08:17:20;100346.94;;;-7.47;78.13
77235;BME280;66253;50.526;14.974;2024-01-11T08:19:48;100341.87;;;-7.45;78.45
77235;BME280;66253;50.526;14.974;2024-01-11T08:22:19;100320.33;;;-7.39;78.37
77235;BME280;66253;50.526;14.974;2024-01-11T08:24:49;100328.48;;;-7.34;78.80
77235;BME280;66253;50.526;14.974;2024-01-11T08:27:19;100326.84;;;-7.28;78.23
77235;BME280;66253;50.526;14.974;2024-01-11T08:29:50;100325.69;;;-7.23;78.11
77235;BME280;66253;50.526;14.974;2024-01-11T08:32:21;100328.64;;;-7.19;78.63
77235;BME280;66253;50.526;14.974;2024-01-11T08:34:56;100329.94;;;-7.14;78.41
77235;BME280;66253;50.526;14.974;2024-01-11T08:37:26;100334.23;;;-7.11;78.13
77235;BME280;66253;50.526;14.974;2024-01-11T08:39:54;100338.83;;;-7.07;78.33
77235;BME280;66253;50.526;14.974;2024-01-11T08:42:25;100338.45;;;-7.03;77.86
77235;BME280;66253;50.526;14.974;2024-01-11T08:44:57;100323.27;;;-7.06;78.14
77235;BME280;66253;50.526;14.974;2024-01-11T08:47:29;100339.52;;;-6.96;77.95
77235;BME280;66253;50.526;14.974;2024-01-11T08:49:58;100344.98;;;-6.92;78.19
77235;BME280;66253;50.526;14.974;2024-01-11T08:52:37;100342.20;;;-6.90;77.58
77235;BME280;66253;50.526;14.974;2024-01-11T08:55:11;100339.44;;;-6.89;77.57
77235;BME280;66253;50.526;14.974;2024-01-11T08:57:56;100327.63;;;-6.84;77.93
77235;BME280;66253;50.526;14.974;2024-01-11T09:00:25;100318.33;;;-6.78;77.45
77235;BME280;66253;50.526;14.974;2024-01-11T09:02:54;100308.55;;;-6.72;77.59
77235;BME280;66253;50.526;14.974;2024-01-11T09:05:22;100311.79;;;-6.64;78.01
77235;BME280;66253;50.526;14.974;2024-01-11T09:07:50;100313.20;;;-6.56;77.94
77235;BME280;66253;50.526;14.974;2024-01-11T09:10:20;100308.91;;;-6.45;77.89
77235;BME280;66253;50.526;14.974;2024-01-11T09:12:49;100306.61;;;-6.32;77.99
77235;BME280;66253;50.526;14.974;2024-01-11T09:15:17;100316.26;;;-6.20;78.09
77235;BME280;66253;50.526;14.974;2024-01-11T09:17:45;100315.30;;;-6.07;78.17
77235;BME280;66253;50.526;14.974;2024-01-11T09:20:14;100324.16;;;-5.94;78.20
77235;BME280;66253;50.526;14.974;2024-01-11T09:22:43;100317.23;;;-5.80;78.30
77235;BME280;66253;50.526;14.974;2024-01-11T09:25:12;100313.91;;;-5.67;78.45
77235;BME280;66253;50.526;14.974;2024-01-11T09:27:41;100318.85;;;-5.56;77.97
77235;BME280;66253;50.526;14.974;2024-01-11T09:30:10;100331.02;;;-5.49;77.69
77235;BME280;66253;50.526;14.974;2024-01-11T09:32:38;100334.29;;;-5.39;77.89
77235;BME280;66253;50.526;14.974;2024-01-11T09:35:08;100334.54;;;-5.30;77.90
77235;BME280;66253;50.526;14.974;2024-01-11T09:37:36;100345.52;;;-5.24;77.53
77235;BME280;66253;50.526;14.974;2024-01-11T09:40:06;100340.80;;;-5.19;77.52
77235;BME280;66253;50.526;14.974;2024-01-11T09:42:34;100335.92;;;-5.08;77.68
77235;BME280;66253;50.526;14.974;2024-01-11T09:45:03;100327.70;;;-4.97;78.06
77235;BME280;66253;50.526;14.974;2024-01-11T09:47:36;100311.81;;;-4.86;77.90
77235;BME280;66253;50.526;14.974;2024-01-11T09:50:05;100293.91;;;-4.75;77.77
77235;BME280;66253;50.526;14.974;2024-01-11T09:52:34;100284.76;;;-4.67;77.79
77235;BME280;66253;50.526;14.974;2024-01-11T09:55:03;100280.60;;;-4.59;77.56
77235;BME280;66253;50.526;14.974;2024-01-11T09:57:33;100276.09;;;-4.52;77.65
77235;BME280;66253;50.526;14.974;2024-01-11T10:00:06;100283.44;;;-4.43;77.75
77235;BME280;66253;50.526;14.974;2024-01-11T10:02:36;100285.76;;;-4.36;77.16
77235;BME280;66253;50.526;14.974;2024-01-11T10:05:05;100286.34;;;-4.25;76.97
77235;BME280;66253;50.526;14.974;2024-01-11T10:07:33;100273.40;;;-4.13;77.23
77235;BME280;66253;50.526;14.974;2024-01-11T10:10:02;100273.41;;;-4.04;77.27
77235;BME280;66253;50.526;14.974;2024-01-11T10:12:32;100289.13;;;-3.94;76.79
77235;BME280;66253;50.526;14.974;2024-01-11T10:15:08;100298.65;;;-3.85;76.26
77235;BME280;66253;50.526;14.974;2024-01-11T10:17:37;100299.19;;;-3.75;75.98
77235;BME280;66253;50.526;14.974;2024-01-11T10:20:09;100297.30;;;-3.69;75.28
77235;BME280;66253;50.526;14.974;2024-01-11T10:22:38;100299.08;;;-3.63;75.50
77235;BME280;66253;50.526;14.974;2024-01-11T10:25:14;100294.68;;;-3.57;75.59
77235;BME280;66253;50.526;14.974;2024-01-11T10:27:43;100283.33;;;-3.48;75.67
77235;BME280;66253;50.526;14.974;2024-01-11T10:30:14;100276.64;;;-3.39;76.12
77235;BME280;66253;50.526;14.974;2024-01-11T10:32:43;100280.48;;;-3.30;75.74
77235;BME280;66253;50.526;14.974;2024-01-11T10:35:11;100277.77;;;-3.21;75.50
77235;BME280;66253;50.526;14.974;2024-01-11T10:37:40;100266.75;;;-3.11;75.61
77235;BME280;66253;50.526;14.974;2024-01-11T10:40:10;100255.55;;;-2.99;75.53
77235;BME280;66253;50.526;14.974;2024-01-11T10:42:41;100248.20;;;-2.89;75.84
77235;BME280;66253;50.526;14.974;2024-01-11T10:45:14;100231.45;;;-2.80;75.65
77235;BME280;66253;50.526;14.974;2024-01-11T10:47:47;100227.57;;;-2.71;75.59
77235;BME280;66253;50.526;14.974;2024-01-11T10:50:18;100227.54;;;-2.61;75.62
77235;BME280;66253;50.526;14.974;2024-01-11T10:52:56;100219.79;;;-2.53;75.65
77235;BME280;66253;50.526;14.974;2024-01-11T10:55:33;100216.73;;;-2.44;75.77
77235;BME280;66253;50.526;14.974;2024-01-11T10:58:03;100208.63;;;-2.36;75.33
77235;BME280;66253;50.526;14.974;2024-01-11T11:00:32;100212.42;;;-2.27;75.39
77235;BME280;66253;50.526;14.974;2024-01-11T11:03:04;100216.23;;;-2.15;75.10
77235;BME280;66253;50.526;14.974;2024-01-11T11:05:33;100220.53;;;-2.05;75.61
77235;BME280;66253;50.526;14.974;2024-01-11T11:08:03;100218.98;;;-1.94;75.52
77235;BME280;66253;50.526;14.974;2024-01-11T11:10:33;100208.89;;;-1.83;75.20
77235;BME280;66253;50.526;14.974;2024-01-11T11:13:02;100202.95;;;-1.73;75.25
77235;BME280;66253;50.526;14.974;2024-01-11T11:15:32;100198.21;;;-1.61;75.07
77235;BME280;66253;50.526;14.974;2024-01-11T11:18:01;100195.41;;;-1.55;74.73
77235;BME280;66253;50.526;14.974;2024-01-11T11:20:30;100184.76;;;-1.49;73.90
77235;BME280;66253;50.526;14.974;2024-01-11T11:23:06;100182.77;;;-1.44;73.08
77235;BME280;66253;50.526;14.974;2024-01-11T11:25:35;100183.00;;;-1.38;72.23
77235;BME280;66253;50.526;14.974;2024-01-11T11:28:04;100179.52;;;-1.31;72.48
77235;BME280;66253;50.526;14.974;2024-01-11T11:30:32;100171.84;;;-1.28;72.28
77235;BME280;66253;50.526;14.974;2024-01-11T11:33:08;100162.15;;;-1.25;72.01
77235;BME280;66253;50.526;14.974;2024-01-11T11:35:37;100159.15;;;-1.22;71.42
77235;BME280;66253;50.526;14.974;2024-01-11T11:38:06;100163.70;;;-1.18;71.10
77235;BME280;66253;50.526;14.974;2024-01-11T11:40:37;100164.56;;;-1.15;70.20
77235;BME280;66253;50.526;14.974;2024-01-11T11:43:07;100157.02;;;-1.15;70.15
77235;BME280;66253;50.526;14.974;2024-01-11T11:45:36;100149.81;;;-1.13;69.76
77235;BME280;66253;50.526;14.974;2024-01-11T11:51:12;100143.80;;;-1.12;69.57
77235;BME280;66253;50.526;14.974;2024-01-11T11:53:42;100137.77;;;-1.11;69.55
77235;BME280;66253;50.526;14.974;2024-01-11T11:56:12;100132.08;;;-1.10;69.41
77235;BME280;66253;50.526;14.974;2024-01-11T11:58:39;100128.56;;;-1.08;69.35
77235;BME280;66253;50.526;14.974;2024-01-11T12:01:08;100126.40;;;-1.06;69.52
77235;BME280;66253;50.526;14.974;2024-01-11T12:03:37;100123.23;;;-1.03;69.30
77235;BME280;66253;50.526;14.974;2024-01-11T12:06:09;100124.10;;;-0.98;69.00
77235;BME280;66253;50.526;14.974;2024-01-11T12:08:38;100113.91;;;-0.91;69.40
77235;BME280;66253;50.526;14.974;2024-01-11T12:11:09;100117.45;;;-0.82;69.15
77235;BME280;66253;50.526;14.974;2024-01-11T12:13:41;100109.29;;;-0.75;68.49
77235;BME280;66253;50.526;14.974;2024-01-11T12:16:09;100109.98;;;-0.68;68.01
77235;BME280;66253;50.526;14.974;2024-01-11T12:18:39;100110.84;;;-0.60;68.22
77235;BME280;66253;50.526;14.974;2024-01-11T12:21:08;100114.91;;;-0.51;67.92
77235;BME280;66253;50.526;14.974;2024-01-11T12:23:39;100111.92;;;-0.43;68.16
77235;BME280;66253;50.526;14.974;2024-01-11T12:26:08;100113.45;;;-0.35;67.83
77235;BME280;66253;50.526;14.974;2024-01-11T12:28:37;100113.13;;;-0.27;67.85
77235;BME280;66253;50.526;14.974;2024-01-11T12:31:05;100118.86;;;-0.20;67.49
77235;BME280;66253;50.526;14.974;2024-01-11T12:33:36;100121.73;;;-0.14;67.26
77235;BME280;66253;50.526;14.974;2024-01-11T12:36:07;100114.18;;;-0.07;67.58
77235;BME280;66253;50.526;14.974;2024-01-11T12:38:36;100108.65;;;0.00;67.63
77235;BME280;66253;50.526;14.974;2024-01-11T12:41:05;100096.23;;;0.08;67.91
77235;BME280;66253;50.526;14.974;2024-01-11T12:43:34;100087.00;;;0.17;67.87
77235;BME280;66253;50.526;14.974;2024-01-11T12:46:02;100087.67;;;0.26;66.99
77235;BME280;66253;50.526;14.974;2024-01-11T12:48:31;100092.87;;;0.32;66.60
77235;BME280;66253;50.526;14.974;2024-01-11T12:50:59;100096.05;;;0.37;66.39
77235;BME280;66253;50.526;14.974;2024-01-11T12:53:28;100091.02;;;0.42;66.87